Time;durP1;ratioP1;P1;durP2;ratioP2;P2;SDS_P1;SDS_P2;PMS_P1;PMS_P2;Temp;Humidity;BMP_temperature;BMP_pressure;BME280_temperature;BME280_humidity;BME280_pressure;Samples;Min_cycle;Max_cycle;Signal;HPM_P1;HPM_P2
2021/05/17 00:00:52;;;;;;;11.07;3.05;;;;;;;;;;5082067;28;20115;-64
2021/05/17 00:03:19;;;;;;;11.38;3.20;;;;;;;;;;5088013;28;20063;-64
2021/05/17 00:05:45;;;;;;;10.05;3.05;;;;;;;;;;5078345;28;20020;-64
2021/05/17 00:08:12;;;;;;;6.00;2.90;;;;;;;;;;5085018;28;20032;-64
2021/05/17 00:10:38;;;;;;;12.80;3.10;;;;;;;;;;5078643;28;20089;-64
2021/05/17 00:13:04;;;;;;;10.85;3.13;;;;;;;;;;5089816;28;20081;-64
2021/05/17 00:15:30;;;;;;;9.10;3.53;;;;;;;;;;5077914;28;20112;-64
2021/05/17 00:17:57;;;;;;;10.35;3.90;;;;;;;;;;5071405;28;20115;-64
2021/05/17 00:20:24;;;;;;;11.38;4.20;;;;;;;;;;5086568;28;20020;-64
2021/05/17 00:22:50;;;;;;;12.95;4.60;;;;;;;;;;5071679;28;20042;-64
2021/05/17 00:25:22;;;;;;;11.80;4.35;;;;;;;;;;5065796;28;20054;-64
2021/05/17 00:27:48;;;;;;;13.05;3.92;;;;;;;;;;5089178;28;20019;-64
2021/05/17 00:30:14;;;;;;;11.95;4.22;;;;;;;;;;5085829;28;20203;-65
2021/05/17 00:32:41;;;;;;;9.15;4.13;;;;;;;;;;5090145;28;20051;-64
2021/05/17 00:35:07;;;;;;;10.23;4.07;;;;;;;;;;5071316;28;20502;-64
2021/05/17 00:37:33;;;;;;;12.85;4.20;;;;;;;;;;5083639;28;20051;-64
2021/05/17 00:40:00;;;;;;;10.40;4.95;;;;;;;;;;5062630;28;20019;-65
2021/05/17 00:42:26;;;;;;;13.02;5.45;;;;;;;;;;5078645;28;20471;-64
2021/05/17 00:44:52;;;;;;;9.32;5.40;;;;;;;;;;5074954;28;20028;-64
2021/05/17 00:47:18;;;;;;;10.88;5.63;;;;;;;;;;5079614;28;20028;-64
2021/05/17 00:49:46;;;;;;;16.42;6.28;;;;;;;;;;5064721;28;20040;-64
2021/05/17 00:52:13;;;;;;;10.40;5.93;;;;;;;;;;5070827;28;20025;-65
2021/05/17 00:54:40;;;;;;;12.10;5.93;;;;;;;;;;5082950;28;20031;-63
2021/05/17 00:57:06;;;;;;;14.18;5.80;;;;;;;;;;5069704;28;20028;-64
2021/05/17 00:59:33;;;;;;;11.50;5.93;;;;;;;;;;5079060;28;20102;-64
2021/05/17 01:01:59;;;;;;;12.02;5.78;;;;;;;;;;5076508;28;20040;-64
2021/05/17 01:04:25;;;;;;;16.73;5.97;;;;;;;;;;5071283;28;20033;-64
2021/05/17 01:06:52;;;;;;;12.52;5.75;;;;;;;;;;5087571;28;20024;-65
2021/05/17 01:09:18;;;;;;;9.85;5.57;;;;;;;;;;5075706;28;20024;-65
2021/05/17 01:11:45;;;;;;;16.67;6.55;;;;;;;;;;5074656;28;20102;-64
2021/05/17 01:14:12;;;;;;;10.13;5.60;;;;;;;;;;5070520;28;20028;-65
2021/05/17 01:16:39;;;;;;;15.77;5.45;;;;;;;;;;5083229;28;20111;-64
2021/05/17 01:19:05;;;;;;;10.32;4.80;;;;;;;;;;5075549;28;20115;-66
2021/05/17 01:21:35;;;;;;;10.13;4.88;;;;;;;;;;5084913;28;20024;-64
2021/05/17 01:24:01;;;;;;;10.82;4.78;;;;;;;;;;5080952;28;20127;-64
2021/05/17 01:26:29;;;;;;;12.18;4.68;;;;;;;;;;5085062;28;20024;-64
2021/05/17 01:28:59;;;;;;;18.35;5.55;;;;;;;;;;5080535;28;20028;-67
2021/05/17 01:31:25;;;;;;;13.18;5.72;;;;;;;;;;5082206;28;20082;-66
2021/05/17 01:33:52;;;;;;;14.15;5.60;;;;;;;;;;5068572;28;20021;-65
2021/05/17 01:36:18;;;;;;;13.82;5.57;;;;;;;;;;5080238;28;20024;-65
2021/05/17 01:38:46;;;;;;;14.55;6.60;;;;;;;;;;5079310;28;20468;-65
2021/05/17 01:41:13;;;;;;;10.82;5.80;;;;;;;;;;5063564;28;20038;-65
2021/05/17 01:43:40;;;;;;;11.98;6.32;;;;;;;;;;5071774;28;20036;-65
2021/05/17 01:46:08;;;;;;;10.98;5.65;;;;;;;;;;5087475;28;20024;-66
2021/05/17 01:48:37;;;;;;;11.68;5.50;;;;;;;;;;5064812;28;20115;-65
2021/05/17 01:51:06;;;;;;;15.10;5.93;;;;;;;;;;5083760;28;20381;-65
2021/05/17 01:53:34;;;;;;;10.60;5.70;;;;;;;;;;5089392;28;20036;-65
2021/05/17 01:56:00;;;;;;;9.98;5.35;;;;;;;;;;5085461;28;20031;-65
2021/05/17 01:58:26;;;;;;;9.10;5.78;;;;;;;;;;5077310;28;20039;-65
2021/05/17 02:00:52;;;;;;;12.75;5.65;;;;;;;;;;5083635;28;20144;-67
2021/05/17 02:03:18;;;;;;;9.65;5.47;;;;;;;;;;5086388;28;20040;-67
2021/05/17 02:05:48;;;;;;;11.93;5.85;;;;;;;;;;5080129;28;20020;-69
2021/05/17 02:08:16;;;;;;;12.10;5.47;;;;;;;;;;5076230;28;20024;-69
2021/05/17 02:10:43;;;;;;;14.00;6.70;;;;;;;;;;5086036;28;20508;-69
2021/05/17 02:13:14;;;;;;;12.55;5.82;;;;;;;;;;5077515;28;20016;-69
2021/05/17 02:15:43;;;;;;;12.90;6.40;;;;;;;;;;5084411;28;20040;-70
2021/05/17 02:18:09;;;;;;;12.00;6.28;;;;;;;;;;5082002;28;20035;-69
2021/05/17 02:20:37;;;;;;;13.93;5.97;;;;;;;;;;5083811;28;20399;-68
2021/05/17 02:23:03;;;;;;;11.65;5.85;;;;;;;;;;5090248;28;20024;-67
2021/05/17 02:25:30;;;;;;;10.38;5.78;;;;;;;;;;5071812;28;20558;-66
2021/05/17 02:27:56;;;;;;;14.75;6.40;;;;;;;;;;5086620;28;20024;-66
2021/05/17 02:30:24;;;;;;;14.23;6.22;;;;;;;;;;5075600;28;20028;-66
2021/05/17 02:32:51;;;;;;;11.88;6.20;;;;;;;;;;5088210;28;20097;-66
2021/05/17 02:35:19;;;;;;;15.93;6.97;;;;;;;;;;5092706;28;20016;-66
2021/05/17 02:37:45;;;;;;;12.20;6.47;;;;;;;;;;5089967;28;20024;-66
2021/05/17 02:40:11;;;;;;;13.48;5.80;;;;;;;;;;5091635;28;20825;-66
2021/05/17 02:42:38;;;;;;;10.60;7.38;;;;;;;;;;5087020;28;20016;-66
2021/05/17 02:45:07;;;;;;;16.38;7.00;;;;;;;;;;5088803;28;20032;-67
2021/05/17 02:47:37;;;;;;;13.15;7.00;;;;;;;;;;5079816;28;20043;-65
2021/05/17 02:50:04;;;;;;;19.80;7.25;;;;;;;;;;5086760;28;20031;-66
2021/05/17 02:52:33;;;;;;;15.48;7.35;;;;;;;;;;5091768;28;20032;-66
2021/05/17 02:55:05;;;;;;;16.80;7.68;;;;;;;;;;5090186;28;20032;-66
2021/05/17 02:57:41;;;;;;;18.73;6.93;;;;;;;;;;5085374;28;20017;-66
2021/05/17 03:00:10;;;;;;;19.15;7.28;;;;;;;;;;5078467;28;20020;-66
2021/05/17 03:02:49;;;;;;;24.73;7.20;;;;;;;;;;5072058;28;20045;-66
2021/05/17 03:05:16;;;;;;;20.15;7.85;;;;;;;;;;5088202;28;20020;-66
2021/05/17 03:07:46;;;;;;;21.30;6.85;;;;;;;;;;5080451;28;20691;-66
2021/05/17 03:10:12;;;;;;;20.73;8.35;;;;;;;;;;5083302;28;20060;-65
2021/05/17 03:12:40;;;;;;;28.50;8.02;;;;;;;;;;5081306;28;20042;-65
2021/05/17 03:15:07;;;;;;;18.63;7.00;;;;;;;;;;5089013;28;20053;-66
2021/05/17 03:17:33;;;;;;;19.92;8.10;;;;;;;;;;5087347;28;20399;-65
2021/05/17 03:19:59;;;;;;;19.13;8.52;;;;;;;;;;5088607;28;20023;-66
2021/05/17 03:22:30;;;;;;;16.38;8.13;;;;;;;;;;5082282;28;20039;-65
2021/05/17 03:24:56;;;;;;;22.42;7.90;;;;;;;;;;5083603;28;20379;-66
2021/05/17 03:27:24;;;;;;;22.02;8.68;;;;;;;;;;5065186;28;20066;-66
2021/05/17 03:29:50;;;;;;;20.80;7.20;;;;;;;;;;5085964;28;20036;-65
2021/05/17 03:32:17;;;;;;;22.88;8.10;;;;;;;;;;5077015;28;20385;-66
2021/05/17 03:34:43;;;;;;;23.23;8.10;;;;;;;;;;5075760;28;20103;-66
2021/05/17 03:37:09;;;;;;;25.15;8.98;;;;;;;;;;5077331;28;20039;-66
2021/05/17 03:39:35;;;;;;;20.08;7.95;;;;;;;;;;5072589;28;20411;-66
2021/05/17 03:42:01;;;;;;;30.83;8.18;;;;;;;;;;5070436;28;20020;-66
2021/05/17 03:44:28;;;;;;;21.23;7.40;;;;;;;;;;5066809;28;20025;-66
2021/05/17 03:46:54;;;;;;;30.63;9.85;;;;;;;;;;5072183;28;20119;-66
2021/05/17 03:49:20;;;;;;;23.42;8.98;;;;;;;;;;5089981;28;20101;-65
2021/05/17 03:51:46;;;;;;;25.92;9.07;;;;;;;;;;5091463;28;20020;-66
2021/05/17 03:54:12;;;;;;;27.15;8.82;;;;;;;;;;5071791;28;20036;-66
2021/05/17 03:56:38;;;;;;;31.33;9.20;;;;;;;;;;5090003;28;20020;-66
2021/05/17 03:59:04;;;;;;;26.60;8.30;;;;;;;;;;5088620;28;20021;-66
2021/05/17 04:01:30;;;;;;;31.48;9.90;;;;;;;;;;5091151;28;20020;-66
2021/05/17 04:03:57;;;;;;;24.15;9.23;;;;;;;;;;5087892;28;20028;-66
2021/05/17 04:06:28;;;;;;;25.08;8.65;;;;;;;;;;5085010;28;20125;-65
2021/05/17 04:14:17;;;;;;;19.75;8.45;;;;;;;;;;5084731;28;20077;-66
2021/05/17 04:16:43;;;;;;;26.23;8.85;;;;;;;;;;5083250;28;20020;-65
2021/05/17 04:19:09;;;;;;;24.10;8.00;;;;;;;;;;5085600;28;20024;-65
2021/05/17 04:21:35;;;;;;;23.83;8.75;;;;;;;;;;5070687;28;20117;-68
2021/05/17 04:24:01;;;;;;;18.33;8.30;;;;;;;;;;5082720;28;20020;-66
2021/05/17 04:26:27;;;;;;;28.75;9.50;;;;;;;;;;5086823;28;20035;-65
2021/05/17 04:28:53;;;;;;;22.40;7.63;;;;;;;;;;5085791;28;20024;-66
2021/05/17 04:31:19;;;;;;;27.83;8.68;;;;;;;;;;5090137;28;20035;-68
2021/05/17 04:33:45;;;;;;;23.35;8.52;;;;;;;;;;5089704;28;20043;-71
2021/05/17 04:36:11;;;;;;;22.20;9.45;;;;;;;;;;5090609;28;20016;-70
2021/05/17 04:38:37;;;;;;;21.75;8.70;;;;;;;;;;5087283;28;20028;-68
2021/05/17 04:41:03;;;;;;;20.60;8.48;;;;;;;;;;5087288;28;20064;-69
2021/05/17 04:43:29;;;;;;;27.77;9.82;;;;;;;;;;5084793;28;20032;-67
2021/05/17 04:45:55;;;;;;;16.20;8.70;;;;;;;;;;5084397;28;20020;-67
2021/05/17 04:48:21;;;;;;;24.02;9.35;;;;;;;;;;5084461;28;20020;-67
2021/05/17 04:50:47;;;;;;;23.90;8.43;;;;;;;;;;5083123;28;20020;-67
2021/05/17 04:53:14;;;;;;;23.08;8.82;;;;;;;;;;5090351;28;20099;-70
2021/05/17 04:55:40;;;;;;;23.85;8.90;;;;;;;;;;5080919;28;20039;-69
2021/05/17 04:58:08;;;;;;;17.95;9.02;;;;;;;;;;5089194;28;20032;-69
2021/05/17 05:00:34;;;;;;;21.65;10.05;;;;;;;;;;5078487;28;20032;-71
2021/05/17 05:03:00;;;;;;;25.50;9.38;;;;;;;;;;5090086;28;20048;-68
2021/05/17 05:05:27;;;;;;;26.58;10.15;;;;;;;;;;5087725;28;20040;-67
2021/05/17 05:07:54;;;;;;;22.73;10.23;;;;;;;;;;5089173;28;20024;-67
2021/05/17 05:10:20;;;;;;;22.55;10.98;;;;;;;;;;5086409;28;20035;-66
2021/05/17 05:12:46;;;;;;;27.00;12.00;;;;;;;;;;5089204;28;20024;-67
2021/05/17 05:15:12;;;;;;;24.77;11.43;;;;;;;;;;5087749;28;20039;-66
2021/05/17 05:17:38;;;;;;;28.13;11.98;;;;;;;;;;5087327;28;20020;-67
2021/05/17 05:20:05;;;;;;;26.58;12.00;;;;;;;;;;5086754;28;20037;-67
2021/05/17 05:22:31;;;;;;;22.15;11.27;;;;;;;;;;5087850;28;20028;-66
2021/05/17 05:24:58;;;;;;;24.15;11.32;;;;;;;;;;5087528;28;20048;-67
2021/05/17 05:30:21;;;;;;;29.73;11.85;;;;;;;;;;5089475;28;20036;-67
2021/05/17 05:32:48;;;;;;;33.22;13.10;;;;;;;;;;5090000;28;20032;-68
2021/05/17 05:35:14;;;;;;;26.25;12.48;;;;;;;;;;5090090;28;20372;-67
2021/05/17 05:37:40;;;;;;;26.05;13.57;;;;;;;;;;5091577;28;20052;-67
2021/05/17 05:40:06;;;;;;;23.73;14.25;;;;;;;;;;5092526;28;20117;-67
2021/05/17 05:42:33;;;;;;;26.70;13.55;;;;;;;;;;5093764;28;20027;-66
2021/05/17 05:44:59;;;;;;;18.45;7.63;;;;;;;;;;5094605;28;20070;-65
2021/05/17 05:47:25;;;;;;;20.42;8.32;;;;;;;;;;5081968;28;20025;-66
2021/05/17 05:49:51;;;;;;;15.98;6.43;;;;;;;;;;5086156;28;20097;-65
2021/05/17 05:52:17;;;;;;;13.85;5.53;;;;;;;;;;5091566;28;20032;-65
2021/05/17 05:54:45;;;;;;;15.45;5.47;;;;;;;;;;5085153;28;20032;-65
2021/05/17 05:57:11;;;;;;;19.70;5.75;;;;;;;;;;5089081;28;20051;-66
2021/05/17 05:59:37;;;;;;;17.73;5.13;;;;;;;;;;5087933;28;20516;-66
2021/05/17 06:02:03;;;;;;;15.57;5.32;;;;;;;;;;5085643;28;20045;-65
2021/05/17 06:04:29;;;;;;;15.70;5.20;;;;;;;;;;5091338;28;20024;-65
2021/05/17 06:06:56;;;;;;;16.23;4.85;;;;;;;;;;5087694;28;20702;-65
2021/05/17 06:09:22;;;;;;;13.57;4.60;;;;;;;;;;5081671;28;20104;-65
2021/05/17 06:11:48;;;;;;;9.90;4.20;;;;;;;;;;5083817;28;20036;-65
2021/05/17 06:14:14;;;;;;;9.90;3.97;;;;;;;;;;5082997;28;20028;-65
2021/05/17 06:16:40;;;;;;;12.43;4.45;;;;;;;;;;5081900;28;20032;-65
2021/05/17 06:19:07;;;;;;;14.75;4.65;;;;;;;;;;5083815;28;20016;-65
2021/05/17 06:21:33;;;;;;;11.55;5.22;;;;;;;;;;5083957;28;20061;-65
2021/05/17 06:23:59;;;;;;;13.60;5.18;;;;;;;;;;5085709;28;20036;-65
2021/05/17 06:26:26;;;;;;;13.07;5.68;;;;;;;;;;5086966;28;20012;-65
2021/05/17 06:28:53;;;;;;;11.07;4.82;;;;;;;;;;5077018;28;20035;-65
2021/05/17 06:31:20;;;;;;;12.32;3.97;;;;;;;;;;5085369;28;20202;-65
2021/05/17 06:33:47;;;;;;;12.15;4.35;;;;;;;;;;5087839;28;20024;-65
2021/05/17 06:36:15;;;;;;;14.50;4.40;;;;;;;;;;5087855;28;20086;-65
2021/05/17 06:38:41;;;;;;;9.80;3.15;;;;;;;;;;5085284;28;20399;-65
2021/05/17 06:41:07;;;;;;;12.93;4.65;;;;;;;;;;5086907;28;20094;-65
2021/05/17 06:43:37;;;;;;;12.57;3.33;;;;;;;;;;5083831;28;20066;-65
2021/05/17 06:46:04;;;;;;;13.18;4.47;;;;;;;;;;5087268;28;20744;-65
2021/05/17 06:48:30;;;;;;;11.02;3.22;;;;;;;;;;5084133;28;20024;-65
2021/05/17 06:50:56;;;;;;;12.15;4.47;;;;;;;;;;5087220;28;20399;-65
2021/05/17 06:53:24;;;;;;;10.43;3.58;;;;;;;;;;5087612;28;20043;-65
2021/05/17 06:56:01;;;;;;;17.52;3.78;;;;;;;;;;5092171;28;20023;-65
2021/05/17 06:58:34;;;;;;;12.48;4.00;;;;;;;;;;5062936;28;20062;-65
2021/05/17 07:01:01;;;;;;;13.95;3.95;;;;;;;;;;5081049;28;20047;-65
2021/05/17 07:03:27;;;;;;;13.32;5.03;;;;;;;;;;5082298;28;20294;-65
2021/05/17 07:05:55;;;;;;;10.25;4.55;;;;;;;;;;5082148;28;20035;-65
2021/05/17 07:13:51;;;;;;;17.75;4.40;;;;;;;;;;5084000;28;20044;-65
2021/05/17 07:16:18;;;;;;;8.95;3.58;;;;;;;;;;5085661;28;20024;-66
2021/05/17 07:18:44;;;;;;;13.75;3.75;;;;;;;;;;5080455;28;20038;-65
2021/05/17 07:23:42;;;;;;;6.40;3.28;;;;;;;;;;5083582;28;20395;-66
2021/05/17 07:26:10;;;;;;;11.88;3.90;;;;;;;;;;5081294;28;20103;-66
2021/05/17 07:28:36;;;;;;;12.13;4.15;;;;;;;;;;5078492;28;20020;-66
2021/05/17 07:31:04;;;;;;;10.70;3.58;;;;;;;;;;5082174;28;20073;-65
2021/05/17 07:33:31;;;;;;;11.25;3.60;;;;;;;;;;5080694;28;20025;-65
2021/05/17 07:35:57;;;;;;;7.47;3.67;;;;;;;;;;5081452;28;20034;-65
2021/05/17 07:38:28;;;;;;;15.65;3.58;;;;;;;;;;5079635;28;20476;-65
2021/05/17 07:40:54;;;;;;;11.57;3.40;;;;;;;;;;5081235;28;20016;-65
2021/05/17 07:43:20;;;;;;;10.07;3.55;;;;;;;;;;5084798;28;20295;-66
2021/05/17 07:45:46;;;;;;;20.70;5.38;;;;;;;;;;5084322;28;20020;-65
2021/05/17 07:48:13;;;;;;;13.27;4.65;;;;;;;;;;5079665;28;20028;-65
2021/05/17 07:50:39;;;;;;;12.73;5.60;;;;;;;;;;5079955;28;20039;-65
2021/05/17 07:53:05;;;;;;;22.92;6.85;;;;;;;;;;5083974;28;20111;-65
2021/05/17 07:55:31;;;;;;;20.80;6.25;;;;;;;;;;5063486;28;20032;-65
2021/05/17 07:57:58;;;;;;;23.77;7.30;;;;;;;;;;5060466;28;20028;-65
2021/05/17 08:00:24;;;;;;;23.70;7.72;;;;;;;;;;5063210;28;20566;-65
2021/05/17 08:02:50;;;;;;;14.10;5.75;;;;;;;;;;5060924;28;20117;-65
2021/05/17 08:05:17;;;;;;;18.92;7.82;;;;;;;;;;5082345;28;20402;-64
2021/05/17 08:07:43;;;;;;;11.40;6.22;;;;;;;;;;5086976;28;20020;-65
2021/05/17 08:10:11;;;;;;;14.10;6.80;;;;;;;;;;5084757;28;20034;-64
2021/05/17 08:12:37;;;;;;;14.90;6.15;;;;;;;;;;5070555;28;20020;-64
2021/05/17 08:15:04;;;;;;;10.77;6.28;;;;;;;;;;5079503;28;20024;-64
2021/05/17 08:17:30;;;;;;;11.13;5.20;;;;;;;;;;5083059;28;20104;-64
2021/05/17 08:19:56;;;;;;;18.08;4.75;;;;;;;;;;5082650;28;20019;-64
2021/05/17 08:22:22;;;;;;;13.43;5.43;;;;;;;;;;5080575;28;20026;-64
2021/05/17 08:24:48;;;;;;;18.48;6.00;;;;;;;;;;5081292;28;20027;-64
2021/05/17 08:27:15;;;;;;;11.85;6.30;;;;;;;;;;5084297;28;20028;-64
2021/05/17 08:29:41;;;;;;;15.63;6.30;;;;;;;;;;5077972;28;20606;-64
2021/05/17 08:32:09;;;;;;;17.90;7.43;;;;;;;;;;5087094;28;20028;-64
2021/05/17 08:34:36;;;;;;;17.45;7.55;;;;;;;;;;5059043;28;20112;-65
2021/05/17 08:37:02;;;;;;;18.00;5.82;;;;;;;;;;5079338;28;20024;-64
2021/05/17 08:39:28;;;;;;;19.33;8.25;;;;;;;;;;5083119;28;20020;-63
2021/05/17 08:41:54;;;;;;;20.67;8.60;;;;;;;;;;5083896;28;20114;-64
2021/05/17 08:44:21;;;;;;;18.67;7.45;;;;;;;;;;5078920;28;20081;-65
2021/05/17 08:46:48;;;;;;;19.33;8.20;;;;;;;;;;5087373;28;20024;-64
2021/05/17 08:49:14;;;;;;;20.55;8.55;;;;;;;;;;5071342;28;20111;-64
2021/05/17 08:51:40;;;;;;;20.08;7.65;;;;;;;;;;5089130;28;20510;-64
2021/05/17 08:54:08;;;;;;;26.52;7.88;;;;;;;;;;5086291;28;20020;-64
2021/05/17 08:56:35;;;;;;;24.95;7.90;;;;;;;;;;5081284;28;20059;-64
2021/05/17 08:59:03;;;;;;;24.55;7.63;;;;;;;;;;5081895;28;20016;-64
2021/05/17 09:01:29;;;;;;;22.83;7.93;;;;;;;;;;5086357;28;20071;-64
2021/05/17 09:04:11;;;;;;;26.65;7.47;;;;;;;;;;5089304;28;20073;-64
2021/05/17 09:06:43;;;;;;;19.88;7.00;;;;;;;;;;5082143;28;20040;-64
2021/05/17 09:09:09;;;;;;;;;;;;;;;;;;5083425;28;20059;-64
2021/05/17 09:11:35;;;;;;;27.85;7.85;;;;;;;;;;5087154;28;19908;-65
2021/05/17 09:14:11;;;;;;;30.02;6.47;;;;;;;;;;5087933;28;20031;-65
2021/05/17 09:16:45;;;;;;;19.65;7.10;;;;;;;;;;5067929;28;20096;-65
2021/05/17 09:19:14;;;;;;;29.90;7.53;;;;;;;;;;5084377;28;20012;-66
2021/05/17 09:21:59;;;;;;;21.08;6.50;;;;;;;;;;5084411;28;20111;-67
2021/05/17 09:24:34;;;;;;;28.38;7.97;;;;;;;;;;5083482;28;20021;-65
2021/05/17 09:27:00;;;;;;;34.13;7.10;;;;;;;;;;5068736;28;20025;-64
2021/05/17 09:29:27;;;;;;;35.83;8.38;;;;;;;;;;5084071;28;20192;-64
2021/05/17 09:31:53;;;;;;;30.67;7.70;;;;;;;;;;5085132;28;20017;-65
2021/05/17 09:34:19;;;;;;;36.38;8.98;;;;;;;;;;5082237;28;20029;-65
2021/05/17 09:36:47;;;;;;;36.75;8.18;;;;;;;;;;5082585;28;20024;-65
2021/05/17 09:39:18;;;;;;;43.45;8.73;;;;;;;;;;5080010;28;20031;-64
2021/05/17 09:41:45;;;;;;;39.37;8.30;;;;;;;;;;5087938;28;20116;-64
2021/05/17 09:44:12;;;;;;;31.35;8.30;;;;;;;;;;5079924;28;20064;-64
2021/05/17 09:46:57;;;;;;;36.92;8.57;;;;;;;;;;5082420;28;20107;-64
2021/05/17 09:49:34;;;;;;;47.05;10.18;;;;;;;;;;5085352;28;20047;-65
2021/05/17 09:52:07;;;;;;;40.90;9.27;;;;;;;;;;5083138;28;20017;-64
2021/05/17 09:55:05;;;;;;;41.45;8.15;;;;;;;;;;5086101;28;20043;-65
2021/05/17 09:57:32;;;;;;;32.97;8.05;;;;;;;;;;5028440;28;20107;-64
2021/05/17 09:59:59;;;;;;;40.28;9.77;;;;;;;;;;5078668;28;20302;-66
2021/05/17 10:02:33;;;;;;;33.53;9.38;;;;;;;;;;5085512;28;20032;-66
2021/05/17 10:05:09;;;;;;;36.40;8.80;;;;;;;;;;5079839;28;20025;-65
2021/05/17 10:07:35;;;;;;;33.63;8.50;;;;;;;;;;5082326;28;20016;-65
2021/05/17 10:10:01;;;;;;;31.63;8.60;;;;;;;;;;5088491;28;20033;-68
2021/05/17 10:12:28;;;;;;;38.78;10.18;;;;;;;;;;5072594;28;20030;-66
2021/05/17 10:14:54;;;;;;;38.20;10.52;;;;;;;;;;5091141;28;20044;-66
2021/05/17 10:17:20;;;;;;;49.58;10.85;;;;;;;;;;5077453;28;20059;-65
2021/05/17 10:19:46;;;;;;;43.55;9.98;;;;;;;;;;5066709;28;20498;-65
2021/05/17 10:22:12;;;;;;;29.15;7.97;;;;;;;;;;5080568;28;20024;-67
2021/05/17 10:24:38;;;;;;;33.85;10.10;;;;;;;;;;5081768;28;20024;-66
2021/05/17 10:27:05;;;;;;;41.88;8.68;;;;;;;;;;5081258;28;20032;-67
2021/05/17 10:29:33;;;;;;;41.90;10.20;;;;;;;;;;5078457;28;20024;-67
2021/05/17 10:32:01;;;;;;;48.05;9.90;;;;;;;;;;5081708;28;20028;-67
2021/05/17 10:34:27;;;;;;;38.60;9.30;;;;;;;;;;5083171;28;20105;-67
2021/05/17 10:36:59;;;;;;;46.30;10.50;;;;;;;;;;5081037;28;20039;-68
2021/05/17 10:39:35;;;;;;;46.00;11.73;;;;;;;;;;5085201;28;20039;-68
2021/05/17 10:47:45;;;;;;;49.30;10.90;;;;;;;;;;5080074;28;20067;-67
2021/05/17 10:50:13;;;;;;;40.33;10.77;;;;;;;;;;5083218;28;20093;-69
2021/05/17 10:52:39;;;;;;;34.40;9.75;;;;;;;;;;5080180;28;20025;-68
2021/05/17 10:55:10;;;;;;;30.38;10.35;;;;;;;;;;5064986;28;20111;-68
2021/05/17 10:57:46;;;;;;;36.55;10.70;;;;;;;;;;5064187;28;20063;-67
2021/05/17 11:00:24;;;;;;;28.48;10.63;;;;;;;;;;5085866;28;20012;-68
2021/05/17 11:03:06;;;;;;;28.75;9.23;;;;;;;;;;5065141;28;20049;-67
2021/05/17 11:05:32;;;;;;;;;;;;;;;;;;5084631;28;20044;-67
2021/05/17 11:08:01;;;;;;;32.92;11.32;;;;;;;;;;5081116;28;19908;-68
2021/05/17 11:10:27;;;;;;;27.08;8.60;;;;;;;;;;5083298;28;20084;-67
2021/05/17 11:12:53;;;;;;;30.25;9.90;;;;;;;;;;5083290;28;20115;-69
2021/05/17 11:15:20;;;;;;;35.42;10.13;;;;;;;;;;5068802;28;20035;-67
2021/05/17 11:17:52;;;;;;;29.88;9.70;;;;;;;;;;5079891;28;20024;-69
2021/05/17 11:20:37;;;;;;;37.38;11.68;;;;;;;;;;5082116;28;20016;-67
2021/05/17 11:23:03;;;;;;;23.40;8.35;;;;;;;;;;5083784;28;20050;-68
2021/05/17 11:25:44;;;;;;;29.45;8.80;;;;;;;;;;5082836;28;20119;-67
2021/05/17 11:28:10;;;;;;;28.20;8.18;;;;;;;;;;5060419;28;20107;-67
2021/05/17 11:30:38;;;;;;;22.00;8.18;;;;;;;;;;5083541;28;20023;-67
2021/05/17 11:33:13;;;;;;;41.42;10.25;;;;;;;;;;5063750;28;20044;-67
2021/05/17 11:35:58;;;;;;;29.60;9.15;;;;;;;;;;5064397;28;20047;-67
2021/05/17 11:38:25;;;;;;;26.20;9.73;;;;;;;;;;5064519;28;20441;-68
2021/05/17 11:40:51;;;;;;;26.45;8.63;;;;;;;;;;5083959;28;20016;-68
2021/05/17 11:43:17;;;;;;;31.25;8.43;;;;;;;;;;5082177;28;20020;-67
2021/05/17 11:45:44;;;;;;;19.23;7.43;;;;;;;;;;5080296;28;20040;-67
2021/05/17 11:48:10;;;;;;;18.80;6.50;;;;;;;;;;5085120;28;20039;-68
2021/05/17 11:50:36;;;;;;;32.55;8.07;;;;;;;;;;5086785;28;20036;-68
2021/05/17 11:53:03;;;;;;;29.15;8.18;;;;;;;;;;5087122;28;20058;-68
2021/05/17 11:55:29;;;;;;;23.17;7.50;;;;;;;;;;5083846;28;20020;-69
2021/05/17 11:57:55;;;;;;;25.90;7.05;;;;;;;;;;5065110;28;20091;-68
2021/05/17 12:00:25;;;;;;;17.88;7.00;;;;;;;;;;5067520;28;20024;-67
2021/05/17 12:02:52;;;;;;;31.73;8.10;;;;;;;;;;5084868;28;20127;-68
2021/05/17 12:05:19;;;;;;;18.13;6.10;;;;;;;;;;5086767;28;20099;-68
2021/05/17 12:07:45;;;;;;;20.38;6.57;;;;;;;;;;5081826;28;20032;-69
2021/05/17 12:10:12;;;;;;;25.38;6.43;;;;;;;;;;5084192;28;20104;-69
2021/05/17 12:12:39;;;;;;;22.33;5.35;;;;;;;;;;5086292;28;20032;-67
2021/05/17 12:15:09;;;;;;;28.95;6.82;;;;;;;;;;5085627;28;20051;-67
2021/05/17 12:17:36;;;;;;;20.52;5.95;;;;;;;;;;5082213;28;20029;-68
2021/05/17 12:20:13;;;;;;;17.15;6.10;;;;;;;;;;5067555;28;20021;-67
2021/05/17 12:22:44;;;;;;;18.70;5.07;;;;;;;;;;5086779;28;20042;-67
2021/05/17 12:25:11;;;;;;;19.73;5.23;;;;;;;;;;5085035;28;20008;-68
2021/05/17 12:27:38;;;;;;;17.90;4.65;;;;;;;;;;5080651;28;20859;-69
2021/05/17 12:30:17;;;;;;;23.42;6.15;;;;;;;;;;5086141;28;20023;-69
2021/05/17 12:32:47;;;;;;;20.73;5.55;;;;;;;;;;5068436;28;20495;-69
2021/05/17 12:35:22;;;;;;;22.58;5.88;;;;;;;;;;5066439;28;20035;-70
2021/05/17 12:37:49;;;;;;;29.60;5.72;;;;;;;;;;5063637;28;20039;-68
2021/05/17 12:40:32;;;;;;;19.92;5.43;;;;;;;;;;5086288;28;20012;-68
2021/05/17 12:43:07;;;;;;;19.85;4.55;;;;;;;;;;5069027;28;20069;-67
2021/05/17 12:45:58;;;;;;;18.08;4.20;;;;;;;;;;5081931;28;20032;-66
2021/05/17 12:48:41;;;;;;;14.48;5.15;;;;;;;;;;5070058;28;20032;-68
2021/05/17 12:51:15;;;;;;;20.88;4.30;;;;;;;;;;5086053;28;20032;-68
2021/05/17 12:53:41;;;;;;;13.07;4.05;;;;;;;;;;5064637;28;20044;-68
2021/05/17 12:56:07;;;;;;;11.93;3.88;;;;;;;;;;5084541;28;20067;-69
2021/05/17 12:58:34;;;;;;;14.25;4.05;;;;;;;;;;5081550;28;20065;-68
2021/05/17 13:01:02;;;;;;;16.67;4.10;;;;;;;;;;5064435;28;20071;-68
2021/05/17 13:03:28;;;;;;;18.23;4.63;;;;;;;;;;5066742;28;20036;-70
2021/05/17 13:05:59;;;;;;;15.07;3.20;;;;;;;;;;5081322;28;20028;-68
2021/05/17 13:08:37;;;;;;;15.13;3.60;;;;;;;;;;5082040;28;20085;-68
2021/05/17 13:11:07;;;;;;;18.77;4.38;;;;;;;;;;5075870;28;20495;-67
2021/05/17 13:13:49;;;;;;;17.80;4.82;;;;;;;;;;5078823;28;20028;-68
2021/05/17 13:16:20;;;;;;;11.38;3.20;;;;;;;;;;5076683;28;20119;-68
2021/05/17 13:18:55;;;;;;;12.32;4.15;;;;;;;;;;5077237;28;20411;-68
2021/05/17 13:22:15;;;;;;;10.13;2.80;;;;;;;;;;5074188;28;20064;-68
2021/05/17 13:30:09;;;;;;;13.50;3.17;;;;;;;;;;5077573;28;20194;-68
2021/05/17 13:32:43;;;;;;;17.35;4.00;;;;;;;;;;5087058;28;20403;-68
2021/05/17 13:35:10;;;;;;;8.50;2.20;;;;;;;;;;5069998;28;20604;-68
2021/05/17 13:37:37;;;;;;;16.50;2.85;;;;;;;;;;5083706;28;20111;-68
2021/05/17 13:40:04;;;;;;;11.98;3.33;;;;;;;;;;5085969;28;20506;-69
2021/05/17 13:42:31;;;;;;;13.70;3.25;;;;;;;;;;5086778;28;20020;-68
2021/05/17 13:44:57;;;;;;;16.75;2.92;;;;;;;;;;5085309;28;20135;-69
2021/05/17 13:47:23;;;;;;;14.23;3.10;;;;;;;;;;5084659;28;20020;-69
2021/05/17 13:49:49;;;;;;;15.68;2.92;;;;;;;;;;5087978;28;20036;-69
2021/05/17 13:52:15;;;;;;;12.70;2.90;;;;;;;;;;5088936;28;20500;-69
2021/05/17 13:54:41;;;;;;;12.90;2.78;;;;;;;;;;5068742;28;20028;-69
2021/05/17 13:57:08;;;;;;;8.32;2.05;;;;;;;;;;5084584;28;20542;-69
2021/05/17 13:59:35;;;;;;;9.40;2.22;;;;;;;;;;5067092;28;20020;-70
2021/05/17 14:02:01;;;;;;;9.95;2.58;;;;;;;;;;5088314;28;20185;-68
2021/05/17 14:04:27;;;;;;;10.63;2.55;;;;;;;;;;5073426;28;20024;-69
2021/05/17 14:06:54;;;;;;;12.18;2.72;;;;;;;;;;5070611;28;20016;-69
2021/05/17 14:09:20;;;;;;;12.57;3.03;;;;;;;;;;5089191;28;20112;-69
2021/05/17 14:11:46;;;;;;;11.80;3.08;;;;;;;;;;5074623;28;20178;-68
2021/05/17 14:14:13;;;;;;;10.65;2.72;;;;;;;;;;5090605;28;20028;-68
2021/05/17 14:16:39;;;;;;;15.70;3.40;;;;;;;;;;5090262;28;20026;-68
2021/05/17 14:19:05;;;;;;;18.25;3.15;;;;;;;;;;5089738;28;20012;-68
2021/05/17 14:21:31;;;;;;;16.52;2.42;;;;;;;;;;5072855;28;20120;-69
2021/05/17 14:23:57;;;;;;;19.08;2.85;;;;;;;;;;5088241;28;20024;-69
2021/05/17 14:26:23;;;;;;;12.70;2.42;;;;;;;;;;5090990;28;20065;-68
2021/05/17 14:28:49;;;;;;;13.02;2.90;;;;;;;;;;5072095;28;20024;-67
2021/05/17 14:31:17;;;;;;;10.23;2.30;;;;;;;;;;5089850;28;20016;-68
2021/05/17 14:33:44;;;;;;;11.35;2.40;;;;;;;;;;5086319;28;20047;-68
2021/05/17 14:36:10;;;;;;;15.32;2.38;;;;;;;;;;5088115;28;20032;-69
2021/05/17 14:38:36;;;;;;;11.48;2.45;;;;;;;;;;5084971;28;20024;-68
2021/05/17 14:41:03;;;;;;;15.93;2.35;;;;;;;;;;5090849;28;20024;-68
2021/05/17 14:43:30;;;;;;;12.80;2.58;;;;;;;;;;5070643;28;20020;-69
2021/05/17 14:45:57;;;;;;;9.10;3.08;;;;;;;;;;5090632;28;20020;-67
2021/05/17 14:48:23;;;;;;;8.57;2.20;;;;;;;;;;5089238;28;20043;-69
2021/05/17 14:50:49;;;;;;;10.15;1.95;;;;;;;;;;5086547;28;20016;-68
2021/05/17 14:53:15;;;;;;;13.93;3.10;;;;;;;;;;5089213;28;20028;-69
2021/05/17 14:55:42;;;;;;;11.40;2.58;;;;;;;;;;5088660;28;20022;-71
2021/05/17 14:58:08;;;;;;;12.30;2.90;;;;;;;;;;5087934;28;20024;-69
2021/05/17 15:00:34;;;;;;;11.80;2.53;;;;;;;;;;5090499;28;20487;-68
2021/05/17 15:03:01;;;;;;;10.38;1.83;;;;;;;;;;5087230;28;20036;-69